Weather at John Wayne Airport-Orange County Airport

Public forecast

Using degrees Fahrenheit for public forecast. Weather courtesy of forecast.io.

Current aviation weather report (METAR) for John Wayne Airport-Orange County Airport

Retrieved 2021/10/19 13:53 UTC (18 minutes ago):

KSNA 191353Z 00000KT 10SM CLR 13/06 A3000 RMK AO2 SLP159 T01280061

Aviation forecast (TAF) for John Wayne Airport-Orange County Airport

Retrieved 2021/10/19 12:39 UTC (2 hours ago):

TAF KSNA 191136Z 1912/2012 VRB04KT P6SM FEW025 FM192000 21007KT P6SM SKC FM200100 VRB04KT P6SM SKC FM200900 VRB04KT P6SM BKN015